createdAt,value
2023-01-19T00:00:23.475Z,6.81
2023-01-19T00:02:51.672Z,6.81
2023-01-19T00:05:19.454Z,6.79
2023-01-19T00:07:46.998Z,6.80
2023-01-19T00:10:14.515Z,6.80
2023-01-19T00:12:42.549Z,6.80
2023-01-19T00:15:10.759Z,6.80
2023-01-19T00:17:41.180Z,6.83
2023-01-19T00:20:09.934Z,6.82
2023-01-19T00:22:37.465Z,6.82
2023-01-19T00:25:05.350Z,6.84
2023-01-19T00:27:35.079Z,6.81
2023-01-19T00:30:02.517Z,6.81
2023-01-19T00:32:30.601Z,6.80
2023-01-19T00:34:58.077Z,6.77
2023-01-19T00:37:25.589Z,6.78
2023-01-19T00:39:53.303Z,6.78
2023-01-19T00:42:39.555Z,6.79
2023-01-19T00:45:12.945Z,6.75
2023-01-19T00:47:41.138Z,6.73
2023-01-19T00:50:11.890Z,6.67
2023-01-19T00:52:41.142Z,6.72
2023-01-19T00:55:11.560Z,6.71
2023-01-19T00:57:40.525Z,6.71
2023-01-19T01:00:11.823Z,6.73
2023-01-19T01:02:41.169Z,6.75
2023-01-19T01:05:09.611Z,6.75
2023-01-19T01:07:41.230Z,6.73
2023-01-19T01:10:10.703Z,6.72
2023-01-19T01:12:39.280Z,6.69
2023-01-19T01:15:10.282Z,6.69
2023-01-19T01:17:47.678Z,6.69
2023-01-19T01:20:23.869Z,6.71
2023-01-19T01:22:53.878Z,6.65
2023-01-19T01:25:23.812Z,6.64
2023-01-19T01:27:51.777Z,6.64
2023-01-19T01:30:20.283Z,6.61
2023-01-19T01:32:48.688Z,6.64
2023-01-19T01:35:17.260Z,6.63
2023-01-19T01:37:45.609Z,6.67
2023-01-19T01:40:15.789Z,6.67
2023-01-19T01:42:44.279Z,6.64
2023-01-19T01:45:30.317Z,6.67
2023-01-19T01:48:22.442Z,6.68
2023-01-19T01:51:26.142Z,6.65
2023-01-19T01:53:56.645Z,6.66
2023-01-19T01:56:27.874Z,6.64
2023-01-19T01:58:55.653Z,6.58
2023-01-19T02:01:41.758Z,6.65
2023-01-19T02:04:09.605Z,6.63
2023-01-19T02:06:56.461Z,6.67
2023-01-19T02:09:45.143Z,6.63
2023-01-19T02:12:31.990Z,6.67
2023-01-19T02:14:59.518Z,6.67
2023-01-19T02:17:27.252Z,6.66
2023-01-19T02:19:54.958Z,6.60
2023-01-19T02:22:36.086Z,6.61
2023-01-19T02:25:05.514Z,6.66
2023-01-19T02:27:34.107Z,6.58
2023-01-19T02:30:03.805Z,6.58
2023-01-19T02:32:31.688Z,6.54
2023-01-19T02:34:59.543Z,6.54
2023-01-19T02:37:31.415Z,6.52
2023-01-19T02:40:02.811Z,6.50
2023-01-19T02:42:36.536Z,6.53
2023-01-19T02:45:09.664Z,6.55
2023-01-19T02:47:39.998Z,6.56
2023-01-19T02:50:27.428Z,6.57
2023-01-19T02:53:02.067Z,6.51
2023-01-19T02:55:32.321Z,6.53
2023-01-19T02:58:22.334Z,6.56
2023-01-19T03:01:02.922Z,6.54
2023-01-19T03:03:40.599Z,6.56
2023-01-19T03:06:27.403Z,6.54
2023-01-19T03:09:41.491Z,6.51
2023-01-19T03:12:22.520Z,6.53
2023-01-19T03:14:51.995Z,6.52
2023-01-19T03:17:20.533Z,6.61
2023-01-19T03:19:50.687Z,6.51
2023-01-19T03:22:29.539Z,6.51
2023-01-19T03:25:01.037Z,6.52
2023-01-19T03:27:40.687Z,6.50
2023-01-19T03:30:13.244Z,6.49
2023-01-19T03:32:50.430Z,6.42
2023-01-19T03:35:20.650Z,6.39
2023-01-19T03:37:50.766Z,6.37
2023-01-19T03:40:18.773Z,6.34
2023-01-19T03:42:49.004Z,6.36
2023-01-19T03:45:17.405Z,6.34
2023-01-19T03:47:45.375Z,6.24
2023-01-19T03:50:30.289Z,6.26
2023-01-19T03:53:07.082Z,6.21
2023-01-19T03:55:37.648Z,6.17
2023-01-19T03:58:05.729Z,6.16
2023-01-19T04:00:34.009Z,6.16
2023-01-19T04:03:01.969Z,6.19
2023-01-19T04:05:30.593Z,6.21
2023-01-19T04:07:58.428Z,6.26
2023-01-19T04:10:26.040Z,6.27
2023-01-19T04:12:58.335Z,6.28
2023-01-19T04:15:26.776Z,6.28
2023-01-19T04:17:54.697Z,6.36
2023-01-19T04:20:22.279Z,6.39
2023-01-19T04:22:49.905Z,6.42
2023-01-19T04:25:17.548Z,6.40
2023-01-19T04:27:45.056Z,6.44
2023-01-19T04:30:13.019Z,6.41
2023-01-19T04:32:41.153Z,6.45
2023-01-19T04:35:08.686Z,6.47
2023-01-19T04:37:36.275Z,6.46
2023-01-19T04:40:04.508Z,6.51
2023-01-19T04:42:32.505Z,6.55
2023-01-19T04:45:01.248Z,6.60
2023-01-19T04:47:29.102Z,6.65
2023-01-19T04:49:56.672Z,6.62
2023-01-19T04:52:25.759Z,6.63
2023-01-19T04:54:53.296Z,6.64
2023-01-19T04:57:20.765Z,6.68
2023-01-19T04:59:48.835Z,6.65
2023-01-19T05:02:16.516Z,6.69
2023-01-19T05:04:44.034Z,6.73
2023-01-19T05:07:11.671Z,6.71
2023-01-19T05:09:39.164Z,6.70
2023-01-19T05:12:06.740Z,6.65
2023-01-19T05:14:34.416Z,6.63
2023-01-19T05:17:03.346Z,6.60
2023-01-19T05:19:31.489Z,6.56
2023-01-19T05:21:59.033Z,6.54
2023-01-19T05:24:26.615Z,6.53
2023-01-19T05:26:54.368Z,6.55
2023-01-19T05:29:22.123Z,6.58
2023-01-19T05:31:49.906Z,6.58
2023-01-19T05:34:17.940Z,6.54
2023-01-19T05:36:45.446Z,6.60
2023-01-19T05:39:14.208Z,6.50
2023-01-19T05:41:47.843Z,6.55
2023-01-19T05:44:15.632Z,6.52
2023-01-19T05:46:43.257Z,6.50
2023-01-19T05:49:12.241Z,6.52
2023-01-19T05:51:40.547Z,6.49
2023-01-19T05:54:08.962Z,6.47
2023-01-19T05:56:39.426Z,6.47
2023-01-19T05:59:07.240Z,6.48
2023-01-19T06:01:39.826Z,6.46
2023-01-19T06:04:07.732Z,6.45
2023-01-19T06:06:36.054Z,6.47
2023-01-19T06:09:03.791Z,6.50
2023-01-19T06:11:31.433Z,6.50
2023-01-19T06:13:58.912Z,6.54
2023-01-19T06:16:26.646Z,6.51
2023-01-19T06:18:54.157Z,6.54
2023-01-19T06:21:21.929Z,6.57
2023-01-19T06:23:49.759Z,6.66
2023-01-19T06:26:17.415Z,6.70
2023-01-19T06:28:44.958Z,6.71
2023-01-19T06:31:12.744Z,6.72
2023-01-19T06:33:40.469Z,6.73
2023-01-19T06:36:08.694Z,6.75
2023-01-19T06:38:36.433Z,6.76
2023-01-19T06:41:04.893Z,6.79
2023-01-19T06:43:33.069Z,6.83
2023-01-19T06:46:00.933Z,6.87
2023-01-19T06:48:28.577Z,6.88
2023-01-19T06:50:58.545Z,6.93
2023-01-19T06:53:28.456Z,6.93
2023-01-19T06:56:03.079Z,7.02
2023-01-19T06:58:32.014Z,7.06
2023-01-19T07:01:06.931Z,7.13
2023-01-19T07:03:35.890Z,7.16
2023-01-19T07:06:06.685Z,7.18
2023-01-19T07:08:37.081Z,7.31
2023-01-19T07:11:30.754Z,7.36
2023-01-19T07:14:00.492Z,7.34
2023-01-19T07:16:28.317Z,7.37
2023-01-19T07:18:56.144Z,7.42
2023-01-19T07:21:24.060Z,7.39
2023-01-19T07:23:53.090Z,7.35
2023-01-19T07:26:21.719Z,7.35
2023-01-19T07:28:51.705Z,7.31
2023-01-19T07:31:19.638Z,7.31
2023-01-19T07:33:47.325Z,7.35
2023-01-19T07:36:16.549Z,7.34
2023-01-19T07:38:44.269Z,7.43
2023-01-19T07:41:25.862Z,7.46
2023-01-19T07:43:56.562Z,7.68
2023-01-19T07:46:24.678Z,7.82
2023-01-19T07:48:52.235Z,7.94
2023-01-19T07:51:22.808Z,8.02
2023-01-19T07:53:51.015Z,8.08
2023-01-19T07:56:18.877Z,8.17
2023-01-19T07:58:47.036Z,8.30
2023-01-19T08:01:16.701Z,8.36
2023-01-19T08:03:44.798Z,8.53
2023-01-19T08:06:23.859Z,8.57
2023-01-19T08:08:53.578Z,8.63
2023-01-19T08:11:21.425Z,8.69
2023-01-19T08:13:48.989Z,8.70
2023-01-19T08:16:17.374Z,8.77
2023-01-19T08:18:44.997Z,8.83
2023-01-19T08:21:13.008Z,8.89
2023-01-19T08:23:40.814Z,8.93
2023-01-19T08:26:27.616Z,8.95
2023-01-19T08:28:59.774Z,8.91
2023-01-19T08:31:31.466Z,8.79
2023-01-19T08:33:59.493Z,8.69
2023-01-19T08:36:27.459Z,8.72
2023-01-19T08:38:55.011Z,8.62
2023-01-19T08:41:22.612Z,8.68
2023-01-19T08:43:50.212Z,8.71
2023-01-19T08:46:21.981Z,8.79
2023-01-19T08:49:05.351Z,8.73
2023-01-19T08:51:36.457Z,8.72
2023-01-19T08:54:06.287Z,8.71
2023-01-19T08:56:33.824Z,8.73
2023-01-19T08:59:09.303Z,8.69
2023-01-19T09:01:37.842Z,8.73
2023-01-19T09:04:05.830Z,8.75
2023-01-19T09:06:34.243Z,8.79
2023-01-19T09:09:01.835Z,8.86
2023-01-19T09:11:30.881Z,8.94
2023-01-19T09:13:59.035Z,9.08
2023-01-19T09:16:27.389Z,9.08
2023-01-19T09:18:55.038Z,9.05
2023-01-19T09:21:22.536Z,9.13
2023-01-19T09:23:52.369Z,9.16
2023-01-19T09:26:19.871Z,9.10
2023-01-19T09:28:47.392Z,9.11
2023-01-19T09:31:15.366Z,9.13
2023-01-19T09:33:42.972Z,9.16
2023-01-19T09:36:10.844Z,9.16
2023-01-19T09:38:40.833Z,9.19
2023-01-19T09:41:33.821Z,9.35
2023-01-19T09:44:01.791Z,9.34
2023-01-19T09:46:41.803Z,9.32
2023-01-19T09:49:26.702Z,9.24
2023-01-19T09:51:54.603Z,9.28
2023-01-19T09:54:27.689Z,9.29
2023-01-19T09:56:55.363Z,9.27
2023-01-19T09:59:29.657Z,9.23
2023-01-19T10:02:25.633Z,9.35
2023-01-19T10:05:27.900Z,9.45
2023-01-19T10:08:25.526Z,9.45
2023-01-19T10:10:58.167Z,9.52
2023-01-19T10:13:47.184Z,9.52
2023-01-19T10:16:31.638Z,9.60
2023-01-19T10:19:09.290Z,9.64
2023-01-19T10:21:43.342Z,9.70
2023-01-19T10:24:22.968Z,9.77
2023-01-19T10:26:52.989Z,9.98
2023-01-19T10:29:34.632Z,10.17
2023-01-19T10:32:12.657Z,10.38
2023-01-19T10:34:41.747Z,10.51
2023-01-19T10:37:18.575Z,10.51
2023-01-19T10:39:53.946Z,10.56
2023-01-19T10:42:21.694Z,10.69
2023-01-19T10:44:49.814Z,10.85
2023-01-19T10:47:20.232Z,10.94
2023-01-19T10:49:49.146Z,11.09
2023-01-19T10:52:37.619Z,11.07
2023-01-19T10:55:08.070Z,11.10
2023-01-19T10:57:39.518Z,11.16
2023-01-19T11:00:28.259Z,11.31
2023-01-19T11:02:55.843Z,11.40
2023-01-19T11:05:25.770Z,11.54
2023-01-19T11:07:53.655Z,11.52
2023-01-19T11:10:28.189Z,11.56
2023-01-19T11:13:15.846Z,11.69
2023-01-19T11:16:00.375Z,11.74
2023-01-19T11:18:30.931Z,11.84
2023-01-19T11:21:08.017Z,11.96
2023-01-19T11:27:51.568Z,12.61
2023-01-19T11:30:26.088Z,12.74
2023-01-19T11:32:54.585Z,12.62
2023-01-19T11:35:38.121Z,12.48
2023-01-19T11:38:19.216Z,12.24
2023-01-19T11:40:58.759Z,11.99
2023-01-19T11:43:43.590Z,11.71
2023-01-19T11:46:17.816Z,11.55
2023-01-19T11:49:08.488Z,11.44
2023-01-19T11:52:02.381Z,11.31
2023-01-19T11:54:35.875Z,11.23
2023-01-19T11:57:16.147Z,11.19
2023-01-19T11:59:45.171Z,11.12
2023-01-19T12:02:43.862Z,11.15
2023-01-19T12:05:17.041Z,11.15
2023-01-19T12:07:47.927Z,11.19
2023-01-19T12:10:31.773Z,11.29
2023-01-19T12:13:00.757Z,11.48
2023-01-19T12:15:34.237Z,11.69
2023-01-19T12:18:03.226Z,11.67
2023-01-19T12:20:36.727Z,11.47
2023-01-19T12:23:29.139Z,11.45
2023-01-19T12:26:02.147Z,11.45
2023-01-19T12:28:32.998Z,11.44
2023-01-19T12:31:02.813Z,11.37
2023-01-19T12:33:34.674Z,11.29
2023-01-19T12:36:07.113Z,11.26
2023-01-19T12:38:52.865Z,11.31
2023-01-19T12:41:28.157Z,11.19
2023-01-19T12:44:16.605Z,11.16
2023-01-19T12:47:08.149Z,11.09
2023-01-19T12:49:41.624Z,11.04
2023-01-19T12:52:31.148Z,10.96
2023-01-19T12:55:07.654Z,10.88
2023-01-19T12:57:40.162Z,10.91
2023-01-19T13:00:27.791Z,10.90
2023-01-19T13:03:21.387Z,10.86
2023-01-19T13:05:56.836Z,10.87
2023-01-19T13:08:30.536Z,10.80
2023-01-19T13:11:05.541Z,10.75
2023-01-19T13:13:38.071Z,10.72
2023-01-19T13:16:18.264Z,10.66
2023-01-19T13:18:48.637Z,10.59
2023-01-19T13:21:28.063Z,10.56
2023-01-19T13:23:58.550Z,10.56
2023-01-19T13:26:30.975Z,10.50
2023-01-19T13:29:16.107Z,10.36
2023-01-19T13:31:44.841Z,10.30
2023-01-19T13:34:15.074Z,10.29
2023-01-19T13:36:46.550Z,10.23
2023-01-19T13:39:20.079Z,10.21
2023-01-19T13:41:49.185Z,10.10
2023-01-19T13:44:24.158Z,10.14
2023-01-19T13:46:54.290Z,10.11
2023-01-19T13:49:33.292Z,10.04
2023-01-19T13:52:30.628Z,9.98
2023-01-19T13:55:03.081Z,9.89
2023-01-19T13:57:40.864Z,9.84
2023-01-19T14:00:12.779Z,9.76
2023-01-19T14:02:40.559Z,9.69
2023-01-19T14:05:28.438Z,9.62
2023-01-19T14:08:08.945Z,9.57
2023-01-19T14:10:48.633Z,9.51
2023-01-19T14:13:20.001Z,9.40
2023-01-19T14:15:50.228Z,9.37
2023-01-19T14:18:20.044Z,9.32
2023-01-19T14:21:12.449Z,9.30
2023-01-19T14:23:47.832Z,9.20
2023-01-19T14:26:49.041Z,9.15
2023-01-19T14:29:19.426Z,9.12
2023-01-19T14:32:00.370Z,9.07
2023-01-19T14:34:45.421Z,8.99
2023-01-19T14:37:21.844Z,8.95
2023-01-19T14:39:52.892Z,8.92
2023-01-19T14:42:26.084Z,8.93
2023-01-19T14:44:56.228Z,8.85
2023-01-19T14:47:29.807Z,8.87
2023-01-19T14:50:02.315Z,8.79
2023-01-19T14:52:42.166Z,8.72
2023-01-19T14:55:28.231Z,8.65
2023-01-19T14:57:55.728Z,8.60
2023-01-19T15:00:23.751Z,8.57
2023-01-19T15:02:51.245Z,8.53
2023-01-19T15:05:19.384Z,8.50
2023-01-19T15:07:47.540Z,8.50
2023-01-19T15:10:23.825Z,8.45
2023-01-19T15:12:54.251Z,8.43
2023-01-19T15:15:29.539Z,8.43
2023-01-19T15:17:58.592Z,8.39
2023-01-19T15:20:26.191Z,8.35
2023-01-19T15:22:53.752Z,8.32
2023-01-19T15:25:25.814Z,8.29
2023-01-19T15:27:57.931Z,8.24
2023-01-19T15:30:29.738Z,8.25
2023-01-19T15:32:58.967Z,8.23
2023-01-19T15:35:26.727Z,8.19
2023-01-19T15:37:54.685Z,8.18
2023-01-19T15:40:23.412Z,8.12
2023-01-19T15:42:51.032Z,8.09
2023-01-19T15:45:18.509Z,8.05
2023-01-19T15:47:46.061Z,8.01
2023-01-19T15:50:13.642Z,8.01
2023-01-19T15:52:41.198Z,8.00
2023-01-19T15:55:11.901Z,7.98
2023-01-19T15:57:39.417Z,7.89
2023-01-19T16:00:07.944Z,7.87
2023-01-19T16:02:37.940Z,7.85
2023-01-19T16:05:06.209Z,7.78
2023-01-19T16:07:34.708Z,7.70
2023-01-19T16:10:02.396Z,7.71
2023-01-19T16:12:30.144Z,7.70
2023-01-19T16:14:57.611Z,7.69
2023-01-19T16:17:25.133Z,7.67
2023-01-19T16:19:52.619Z,7.65
2023-01-19T16:22:20.154Z,7.61
2023-01-19T16:24:47.705Z,7.51
2023-01-19T16:27:15.211Z,7.52
2023-01-19T16:29:42.669Z,7.52
2023-01-19T16:32:10.151Z,7.45
2023-01-19T16:34:37.648Z,7.45
2023-01-19T16:37:05.178Z,7.42
2023-01-19T16:39:32.791Z,7.31
2023-01-19T16:42:00.588Z,7.23
2023-01-19T16:44:28.234Z,7.20
2023-01-19T16:46:55.774Z,7.20
2023-01-19T16:49:26.804Z,7.19
2023-01-19T16:51:56.215Z,7.16
2023-01-19T16:54:26.189Z,7.13
2023-01-19T16:56:55.548Z,7.11
2023-01-19T16:59:23.440Z,7.08
2023-01-19T17:01:52.142Z,7.00
2023-01-19T17:04:22.055Z,7.00
2023-01-19T17:06:50.234Z,7.00
2023-01-19T17:09:18.002Z,6.99
2023-01-19T17:11:46.174Z,6.91
2023-01-19T17:14:16.684Z,6.91
2023-01-19T17:16:44.359Z,6.84
2023-01-19T17:19:17.444Z,6.84
2023-01-19T17:21:48.707Z,6.85
2023-01-19T17:24:17.285Z,6.83
2023-01-19T17:26:46.066Z,6.75
2023-01-19T17:29:13.553Z,6.78
2023-01-19T17:31:41.191Z,6.74
2023-01-19T17:34:09.934Z,6.67
2023-01-19T17:36:38.068Z,6.61
2023-01-19T17:39:08.297Z,6.57
2023-01-19T17:41:36.133Z,6.60
2023-01-19T17:44:05.567Z,6.59
2023-01-19T17:46:36.698Z,6.57
2023-01-19T17:49:05.940Z,6.58
2023-01-19T17:51:34.160Z,6.53
2023-01-19T17:54:01.993Z,6.52
2023-01-19T17:56:33.188Z,6.48
2023-01-19T17:59:00.736Z,6.48
2023-01-19T18:01:30.978Z,6.51
2023-01-19T18:03:59.262Z,6.47
2023-01-19T18:06:27.089Z,6.46
2023-01-19T18:08:54.601Z,6.43
2023-01-19T18:11:22.386Z,6.42
2023-01-19T18:13:50.823Z,6.42
2023-01-19T18:16:29.072Z,6.48
2023-01-19T18:18:57.528Z,6.41
2023-01-19T18:21:28.876Z,6.38
2023-01-19T18:24:04.989Z,6.38
2023-01-19T18:26:34.781Z,6.39
2023-01-19T18:29:02.463Z,6.40
2023-01-19T18:31:30.431Z,6.36
2023-01-19T18:33:58.233Z,6.37
2023-01-19T18:36:25.895Z,6.35
2023-01-19T18:38:53.782Z,6.27
2023-01-19T18:41:22.131Z,6.24
2023-01-19T18:43:50.274Z,6.24
2023-01-19T18:46:19.116Z,6.24
2023-01-19T18:48:46.678Z,6.20
2023-01-19T18:51:15.874Z,6.14
2023-01-19T18:53:43.899Z,6.14
2023-01-19T18:56:14.358Z,6.12
2023-01-19T18:58:44.919Z,6.10
2023-01-19T19:01:24.603Z,6.05
2023-01-19T19:03:52.991Z,5.97
2023-01-19T19:06:21.466Z,5.92
2023-01-19T19:08:50.972Z,5.87
2023-01-19T19:11:20.180Z,5.88
2023-01-19T19:14:00.610Z,5.90
2023-01-19T19:16:28.946Z,5.83
2023-01-19T19:18:56.966Z,5.83
2023-01-19T19:21:25.571Z,5.80
2023-01-19T19:23:57.779Z,5.80
2023-01-19T19:26:28.446Z,5.83
2023-01-19T19:28:56.510Z,5.79
2023-01-19T19:31:26.235Z,5.82
2023-01-19T19:33:55.849Z,5.84
2023-01-19T19:36:24.455Z,5.85
2023-01-19T19:38:52.076Z,5.85
2023-01-19T19:41:27.089Z,5.80
2023-01-19T19:43:55.741Z,5.83
2023-01-19T19:46:24.556Z,5.80
2023-01-19T19:48:53.057Z,5.82
2023-01-19T19:51:27.223Z,5.79
2023-01-19T19:53:56.897Z,5.82
2023-01-19T19:56:25.097Z,5.81
2023-01-19T19:58:54.685Z,5.82
2023-01-19T20:01:26.767Z,5.80
2023-01-19T20:03:55.637Z,5.77
2023-01-19T20:06:25.063Z,5.73
2023-01-19T20:08:54.423Z,5.72
2023-01-19T20:11:25.447Z,5.68
2023-01-19T20:13:53.311Z,5.66
2023-01-19T20:16:23.191Z,5.62
2023-01-19T20:18:54.258Z,5.70
2023-01-19T20:21:25.690Z,5.69
2023-01-19T20:23:54.950Z,5.71
2023-01-19T20:26:26.557Z,5.71
2023-01-19T20:28:56.750Z,5.65
2023-01-19T20:35:28.166Z,5.66
2023-01-19T20:37:55.875Z,5.67
2023-01-19T20:40:23.455Z,5.68
2023-01-19T20:42:50.991Z,5.68
2023-01-19T20:45:19.753Z,5.72
2023-01-19T20:47:47.297Z,5.71
2023-01-19T20:50:14.812Z,5.72
2023-01-19T20:52:42.296Z,5.74
2023-01-19T20:55:10.557Z,5.70
2023-01-19T20:57:38.124Z,5.71
2023-01-19T21:00:06.266Z,5.72
2023-01-19T21:02:33.944Z,5.71
2023-01-19T21:05:01.500Z,5.73
2023-01-19T21:07:29.401Z,5.66
2023-01-19T21:09:56.939Z,5.69
2023-01-19T21:12:24.551Z,5.64
2023-01-19T21:14:52.077Z,5.62
2023-01-19T21:17:19.579Z,5.65
2023-01-19T21:19:47.195Z,5.61
2023-01-19T21:22:14.893Z,5.60
2023-01-19T21:24:44.449Z,5.56
2023-01-19T21:27:11.972Z,5.53
2023-01-19T21:29:40.908Z,5.53
2023-01-19T21:32:08.472Z,5.53
2023-01-19T21:34:36.018Z,5.52
2023-01-19T21:37:03.522Z,5.48
2023-01-19T21:39:31.090Z,5.43
2023-01-19T21:41:58.657Z,5.43
2023-01-19T21:44:26.324Z,5.41
2023-01-19T21:46:55.584Z,5.42
2023-01-19T21:49:23.111Z,5.42
2023-01-19T21:51:50.769Z,5.40
2023-01-19T21:54:18.976Z,5.40
2023-01-19T21:56:46.557Z,5.36
2023-01-19T21:59:15.568Z,5.34
2023-01-19T22:01:45.217Z,5.29
2023-01-19T22:04:31.239Z,5.32
2023-01-19T22:06:58.806Z,5.33
2023-01-19T22:09:26.331Z,5.36
2023-01-19T22:11:53.918Z,5.33
2023-01-19T22:14:21.478Z,5.37
2023-01-19T22:16:49.034Z,5.31
2023-01-19T22:19:16.538Z,5.27
2023-01-19T22:21:44.109Z,5.30
2023-01-19T22:24:12.918Z,5.31
2023-01-19T22:26:40.455Z,5.33
2023-01-19T22:29:17.612Z,5.32
2023-01-19T22:31:45.909Z,5.31
2023-01-19T22:34:14.566Z,5.26
2023-01-19T22:36:42.149Z,5.28
2023-01-19T22:39:12.057Z,5.26
2023-01-19T22:41:45.003Z,5.28
2023-01-19T22:44:15.111Z,5.26
2023-01-19T22:46:43.414Z,5.20
2023-01-19T22:49:13.446Z,5.14
2023-01-19T22:51:41.397Z,5.15
2023-01-19T22:54:09.147Z,5.19
2023-01-19T22:56:38.821Z,5.12
2023-01-19T22:59:06.805Z,5.16
2023-01-19T23:01:40.194Z,5.21
2023-01-19T23:04:14.287Z,5.22
2023-01-19T23:06:42.348Z,5.24
2023-01-19T23:09:14.771Z,5.17
2023-01-19T23:11:44.029Z,5.18
2023-01-19T23:14:17.764Z,5.18
2023-01-19T23:16:47.309Z,5.18
2023-01-19T23:19:17.130Z,5.26
2023-01-19T23:21:44.910Z,5.25
2023-01-19T23:24:12.717Z,5.22
2023-01-19T23:26:40.361Z,5.25
2023-01-19T23:29:12.323Z,5.26
2023-01-19T23:31:44.120Z,5.22
2023-01-19T23:34:12.580Z,5.26
2023-01-19T23:36:41.940Z,5.25
2023-01-19T23:39:18.276Z,5.29
2023-01-19T23:41:46.401Z,5.28
2023-01-19T23:44:14.119Z,5.29
2023-01-19T23:46:41.914Z,5.26
2023-01-19T23:49:09.523Z,5.28
2023-01-19T23:51:37.065Z,5.27
2023-01-19T23:54:04.709Z,5.26
2023-01-19T23:56:35.265Z,5.27
2023-01-19T23:59:07.739Z,5.30
